Sichem Hawk — 9HSE9 — position and weather

sailwx.info

Track history (hours):
 
Tides and Currents Weather Stations Pressure Air Temp Water Temp Dewpoint Dewpoint Depression Visibility Wind Speed Wind Dir Waves Ship Positions

Sichem Hawk

Last reported at 2015-May-30 03:26 UTC. Time now 2015-May-30 04:30 UTC.
Position N 51°52' E 004°19'.

Length 170 m; draft 7 m.

Type: Ship. MMSI: 249445000.

Date/timePositionNaut miles runAvg speedWind from/ knotsBaromVisibWave heightAir tempDewpointWater temp
2015-May-30 03:26N 51°52' E 004°19'0 0.0
2015-May-30 02:32N 51°52' E 004°19'0 0.0
2015-May-30 01:26N 51°52' E 004°19'0 0.0
2015-May-30 00:20N 51°52' E 004°19'0 0.0
2015-May-29 23:26N 51°52' E 004°19'2 2.7
2015-May-29 22:33N 51°54' E 004°16'1010.4
2015-May-29 21:33N 51°60' E 004°02'9 9.4
2015-May-29 20:33N 52°00' E 003°47'4 3.6
2015-May-29 19:29N 51°57' E 003°43'0 0.0
2015-May-29 18:32N 51°57' E 003°43'0 0.0
2015-May-29 17:29N 51°57' E 003°43'0 0.1
2015-May-29 16:26N 51°57' E 003°43'4 4.2
2015-May-29 15:33N 51°57' E 003°37'1615.3
2015-May-29 14:31N 51°53' E 003°12'3115.6
2015-May-29 12:33N 51°39' E 002°27'1616.4
2015-May-29 11:33N 51°26' E 002°12'1615.9
2015-May-29 10:33N 51°12' E 001°59'1717.4
2015-May-29 09:33N 51°01' E 001°38'42514.5
2015-May-28 04:19N 46°51' W 007°05'1114.4
2015-May-28 03:33N 46°42' W 007°13'37713.5
2015-May-26 23:33N 40°47' W 010°11'1313.0
2015-May-26 22:33N 40°34' W 010°14'1313.1
2015-May-26 21:33N 40°21' W 010°16'1313.3
2015-May-26 20:33N 40°08' W 010°18'1313.4
2015-May-26 19:33N 39°55' W 010°21'1313.4
2015-May-26 18:33N 39°42' W 010°23'1313.3
2015-May-26 17:33N 39°29' W 010°26'1413.4
2015-May-26 16:33N 39°15' W 010°28'1313.4
2015-May-26 15:33N 39°02' W 010°30'1413.5
2015-May-26 14:33N 38°49' W 010°33'1313.0
2015-May-26 13:33N 38°36' W 010°35'1313.2
2015-May-26 12:33N 38°23' W 010°37'1313.2
2015-May-26 11:33N 38°11' W 010°28'1413.9
2015-May-26 10:33N 38°00' W 010°17'1414.1
2015-May-26 09:33N 37°48' W 010°07'1414.1
2015-May-26 08:33N 37°37' W 009°56'1514.7
2015-May-26 07:33N 37°25' W 009°45'1514.8
2015-May-26 06:33N 37°13' W 009°34'1514.6
2015-May-26 05:33N 37°02' W 009°24'1514.7
2015-May-26 04:33N 36°49' W 009°14'1514.7
2015-May-26 03:33N 36°43' W 008°58'1515.1
2015-May-26 02:33N 36°37' W 008°40'1515.5
2015-May-26 01:33N 36°32' W 008°22'1515.3
2015-May-26 00:33N 36°28' W 008°04'1514.9
2015-May-25 23:33N 36°23' W 007°46'10814.9
2015-May-25 16:20N 35°58' W 005°36'1113.6
2015-May-25 15:33N 36°02' W 005°24'6 5.9
2015-May-25 14:32N 36°08' W 005°22'0 0.0
2015-May-25 13:32N 36°08' W 005°22'0 0.0
2015-May-25 12:32N 36°08' W 005°22'0 0.0
2015-May-25 11:32N 36°08' W 005°22'0 0.1
2015-May-25 10:29N 36°08' W 005°22'0 0.1
2015-May-25 09:23N 36°08' W 005°22'0 0.0
2015-May-25 08:29N 36°08' W 005°22'0 0.0
2015-May-25 07:26N 36°08' W 005°22'0 0.0
2015-May-25 06:32N 36°08' W 005°22'0 0.1
2015-May-25 05:32N 36°07' W 005°22'0 0.0
2015-May-25 04:32N 36°07' W 005°22'3 3.4
2015-May-25 03:33N 36°05' W 005°19'12413.4
2015-May-24 18:20N 36°21' W 002°47'1114.0
2015-May-24 17:33N 36°23' W 002°34'1414.0
2015-May-24 16:32N 36°25' W 002°16'1413.6
2015-May-24 15:29N 36°33' W 002°01'1413.8
2015-May-24 14:27N 36°42' W 001°48'4213.9
2015-May-24 11:27N 37°10' W 001°09'1313.9
2015-May-24 10:33N 37°18' W 000°57'1414.0
2015-May-24 09:33N 37°27' W 000°44'1413.8
2015-May-24 08:33N 37°36' W 000°31'1413.8
2015-May-24 07:33N 37°48' W 000°21'1413.9
2015-May-24 06:33N 37°60' W 000°12'2813.9
2015-May-24 04:32N 38°23' E 000°07'1413.9
2015-May-24 03:30N 38°35' E 000°17'1312.7
2015-May-24 02:29N 38°48' E 000°23'1813.3
2015-May-24 01:06N 39°05' E 000°18'3513.4
2015-May-23 22:27N 39°40' E 000°10'  
Track history (hours):
 
Tides and Currents Weather Stations Pressure Air Temp Water Temp Dewpoint Dewpoint Depression Visibility Wind Speed Wind Dir Waves Ship Positions

Sichem Hawk

Last reported at 2015-May-30 03:26 UTC. Time now 2015-May-30 04:30 UTC.
Position N 51°52' E 004°19'.

Length 170 m; draft 7 m.

Type: Ship. MMSI: 249445000.

Date/timePositionNaut miles runAvg speedWind from/ knotsBaromVisibWave heightAir tempDewpointWater temp
2015-May-30 03:26N 51°52' E 004°19'0 0.0
2015-May-30 02:32N 51°52' E 004°19'0 0.0
2015-May-30 01:26N 51°52' E 004°19'0 0.0
2015-May-30 00:20N 51°52' E 004°19'0 0.0
2015-May-29 23:26N 51°52' E 004°19'2 2.7
2015-May-29 22:33N 51°54' E 004°16'1010.4
2015-May-29 21:33N 51°60' E 004°02'9 9.4
2015-May-29 20:33N 52°00' E 003°47'4 3.6
2015-May-29 19:29N 51°57' E 003°43'0 0.0
2015-May-29 18:32N 51°57' E 003°43'0 0.0
2015-May-29 17:29N 51°57' E 003°43'0 0.1
2015-May-29 16:26N 51°57' E 003°43'4 4.2
2015-May-29 15:33N 51°57' E 003°37'1615.3
2015-May-29 14:31N 51°53' E 003°12'3115.6
2015-May-29 12:33N 51°39' E 002°27'1616.4
2015-May-29 11:33N 51°26' E 002°12'1615.9
2015-May-29 10:33N 51°12' E 001°59'1717.4
2015-May-29 09:33N 51°01' E 001°38'42514.5
2015-May-28 04:19N 46°51' W 007°05'1114.4
2015-May-28 03:33N 46°42' W 007°13'37713.5
2015-May-26 23:33N 40°47' W 010°11'1313.0
2015-May-26 22:33N 40°34' W 010°14'1313.1
2015-May-26 21:33N 40°21' W 010°16'1313.3
2015-May-26 20:33N 40°08' W 010°18'1313.4
2015-May-26 19:33N 39°55' W 010°21'1313.4
2015-May-26 18:33N 39°42' W 010°23'1313.3
2015-May-26 17:33N 39°29' W 010°26'1413.4
2015-May-26 16:33N 39°15' W 010°28'1313.4
2015-May-26 15:33N 39°02' W 010°30'1413.5
2015-May-26 14:33N 38°49' W 010°33'1313.0
2015-May-26 13:33N 38°36' W 010°35'1313.2
2015-May-26 12:33N 38°23' W 010°37'1313.2
2015-May-26 11:33N 38°11' W 010°28'1413.9
2015-May-26 10:33N 38°00' W 010°17'1414.1
2015-May-26 09:33N 37°48' W 010°07'1414.1
2015-May-26 08:33N 37°37' W 009°56'1514.7
2015-May-26 07:33N 37°25' W 009°45'1514.8
2015-May-26 06:33N 37°13' W 009°34'1514.6
2015-May-26 05:33N 37°02' W 009°24'1514.7
2015-May-26 04:33N 36°49' W 009°14'1514.7
2015-May-26 03:33N 36°43' W 008°58'1515.1
2015-May-26 02:33N 36°37' W 008°40'1515.5
2015-May-26 01:33N 36°32' W 008°22'1515.3
2015-May-26 00:33N 36°28' W 008°04'1514.9
2015-May-25 23:33N 36°23' W 007°46'10814.9
2015-May-25 16:20N 35°58' W 005°36'1113.6
2015-May-25 15:33N 36°02' W 005°24'6 5.9
2015-May-25 14:32N 36°08' W 005°22'0 0.0
2015-May-25 13:32N 36°08' W 005°22'0 0.0
2015-May-25 12:32N 36°08' W 005°22'0 0.0
2015-May-25 11:32N 36°08' W 005°22'0 0.1
2015-May-25 10:29N 36°08' W 005°22'0 0.1
2015-May-25 09:23N 36°08' W 005°22'0 0.0
2015-May-25 08:29N 36°08' W 005°22'0 0.0
2015-May-25 07:26N 36°08' W 005°22'0 0.0
2015-May-25 06:32N 36°08' W 005°22'0 0.1
2015-May-25 05:32N 36°07' W 005°22'0 0.0
2015-May-25 04:32N 36°07' W 005°22'3 3.4
2015-May-25 03:33N 36°05' W 005°19'12413.4
2015-May-24 18:20N 36°21' W 002°47'1114.0
2015-May-24 17:33N 36°23' W 002°34'1414.0
2015-May-24 16:32N 36°25' W 002°16'1413.6
2015-May-24 15:29N 36°33' W 002°01'1413.8
2015-May-24 14:27N 36°42' W 001°48'4213.9
2015-May-24 11:27N 37°10' W 001°09'1313.9
2015-May-24 10:33N 37°18' W 000°57'1414.0
2015-May-24 09:33N 37°27' W 000°44'1413.8
2015-May-24 08:33N 37°36' W 000°31'1413.8
2015-May-24 07:33N 37°48' W 000°21'1413.9
2015-May-24 06:33N 37°60' W 000°12'2813.9
2015-May-24 04:32N 38°23' E 000°07'1413.9
2015-May-24 03:30N 38°35' E 000°17'1312.7
2015-May-24 02:29N 38°48' E 000°23'1813.3
2015-May-24 01:06N 39°05' E 000°18'3513.4
2015-May-23 22:27N 39°40' E 000°10'  

Dump ship's entire track history